Time,TemperatureF,DewpointF,PressureIn,WindDirection,WindDirectionDegrees,WindSpeedMPH,WindSpeedGustMPH,Humidity,HourlyPrecipIn,Conditions,Clouds,dailyrainin,SoftwareType,DateUTC
2013-04-20 00:05:00,56.0,50.5,29.76,SSW,203,3.4,3.4,82,0.00,,,0.00,WUHU216HW,2013-04-20 04:05:00,
2013-04-20 00:15:00,55.4,50.6,29.75,NNW,338,3.1,3.1,84,0.00,,,0.00,WUHU216HW,2013-04-20 04:15:00,
2013-04-20 00:25:00,55.1,51.0,29.75,NW,315,0.9,2.0,86,0.00,,,0.00,WUHU216HW,2013-04-20 04:25:00,
2013-04-20 00:35:00,54.7,50.6,29.76,West,270,1.1,3.1,86,0.00,,,0.00,WUHU216HW,2013-04-20 04:35:00,
2013-04-20 00:45:00,54.2,49.8,29.76,NW,315,1.1,1.8,85,0.00,,,0.00,WUHU216HW,2013-04-20 04:45:00,
2013-04-20 00:55:00,52.9,47.0,29.76,WNW,293,1.1,4.7,80,0.00,,,0.00,WUHU216HW,2013-04-20 04:55:00,
2013-04-20 01:05:00,52.0,46.7,29.77,WSW,248,0.4,2.0,82,0.00,,,0.00,WUHU216HW,2013-04-20 05:05:00,
2013-04-20 01:15:00,51.5,46.8,29.78,West,270,0.4,1.8,84,0.00,,,0.00,WUHU216HW,2013-04-20 05:15:00,
2013-04-20 01:25:00,50.9,46.5,29.79,West,270,1.1,1.3,85,0.00,,,0.00,WUHU216HW,2013-04-20 05:25:00,
2013-04-20 01:35:00,50.8,46.6,29.76,NNW,338,0.2,1.1,86,0.00,,,0.00,WUHU216HW,2013-04-20 05:35:00,
2013-04-20 01:45:00,50.4,46.3,29.77,West,270,0.0,0.4,86,0.00,,,0.00,WUHU216HW,2013-04-20 05:45:00,
2013-04-20 01:55:00,50.4,46.3,29.75,South,180,0.0,0.4,86,0.00,,,0.00,WUHU216HW,2013-04-20 05:55:00,
2013-04-20 02:05:00,50.6,46.4,29.75,SW,225,0.0,0.4,86,0.00,,,0.00,WUHU216HW,2013-04-20 06:05:00,
2013-04-20 02:15:00,50.4,46.3,29.78,SW,225,0.0,1.1,86,0.00,,,0.00,WUHU216HW,2013-04-20 06:15:00,
2013-04-20 02:25:00,50.4,46.6,29.79,WSW,248,0.4,2.2,87,0.00,,,0.00,WUHU216HW,2013-04-20 06:25:00,
2013-04-20 02:35:00,50.0,47.2,29.79,WNW,293,0.0,2.5,90,0.00,,,0.00,WUHU216HW,2013-04-20 06:35:00,
2013-04-20 02:45:00,49.9,47.3,29.79,NW,315,1.6,2.0,91,0.00,,,0.00,WUHU216HW,2013-04-20 06:45:00,
2013-04-20 02:55:00,49.9,47.3,29.79,NNW,338,0.9,2.2,91,0.00,,,0.00,WUHU216HW,2013-04-20 06:55:00,
2013-04-20 03:05:00,49.9,47.0,29.79,NW,315,0.7,2.5,90,0.00,,,0.00,WUHU216HW,2013-04-20 07:05:00,
2013-04-20 03:15:00,49.7,46.8,29.79,WNW,293,0.4,2.5,90,0.00,,,0.00,WUHU216HW,2013-04-20 07:15:00,
2013-04-20 03:25:00,49.5,46.7,29.79,NW,315,0.0,2.2,90,0.00,,,0.00,WUHU216HW,2013-04-20 07:25:00,
2013-04-20 03:35:00,49.5,46.7,29.80,West,270,0.2,1.8,90,0.00,,,0.00,WUHU216HW,2013-04-20 07:35:00,
2013-04-20 03:45:00,49.5,47.0,29.80,WNW,293,1.3,1.8,91,0.00,,,0.00,WUHU216HW,2013-04-20 07:45:00,
2013-04-20 03:55:00,49.3,46.8,29.81,WSW,248,1.1,2.2,91,0.00,,,0.00,WUHU216HW,2013-04-20 07:55:00,
2013-04-20 04:05:00,49.3,46.5,29.82,West,270,1.8,2.7,90,0.00,,,0.00,WUHU216HW,2013-04-20 08:05:00,
2013-04-20 04:15:00,49.3,46.5,29.81,West,270,1.6,1.8,90,0.00,,,0.00,WUHU216HW,2013-04-20 08:15:00,
2013-04-20 04:25:00,49.1,46.1,29.83,NNW,338,1.6,3.4,89,0.00,,,0.00,WUHU216HW,2013-04-20 08:25:00,
2013-04-20 04:35:00,49.1,45.7,29.83,WNW,293,1.1,3.8,88,0.00,,,0.00,WUHU216HW,2013-04-20 08:35:00,
2013-04-20 04:58:00,48.8,44.5,29.85,NW,315,1.3,3.8,85,0.00,,,0.00,WUHU216HW,2013-04-20 08:58:00,
2013-04-20 05:08:00,48.6,43.7,29.86,West,270,2.0,4.0,83,0.00,,,0.00,WUHU216HW,2013-04-20 09:08:00,
2013-04-20 05:18:00,48.2,42.7,29.86,NW,315,0.4,1.8,81,0.00,,,0.00,WUHU216HW,2013-04-20 09:18:00,
2013-04-20 05:28:00,47.9,41.9,29.88,West,270,3.1,3.1,80,0.00,,,0.00,WUHU216HW,2013-04-20 09:28:00,
2013-04-20 05:38:00,47.7,41.9,29.89,WNW,293,0.4,2.9,80,0.00,,,0.00,WUHU216HW,2013-04-20 09:38:00,
2013-04-20 05:48:00,47.7,42.1,29.88,WNW,293,0.9,2.0,81,0.00,,,0.00,WUHU216HW,2013-04-20 09:48:00,
2013-04-20 05:58:00,47.5,42.3,29.89,West,270,1.6,1.6,82,0.00,,,0.00,WUHU216HW,2013-04-20 09:58:00,
2013-04-20 06:08:00,47.7,42.8,29.88,West,270,1.6,1.6,83,0.00,,,0.00,WUHU216HW,2013-04-20 10:08:00,
2013-04-20 06:18:00,47.9,40.6,29.89,NNW,338,3.1,6.3,76,0.00,,,0.00,WUHU216HW,2013-04-20 10:18:00,
2013-04-20 06:28:00,47.9,40.0,29.90,WSW,248,2.5,2.7,74,0.00,,,0.00,WUHU216HW,2013-04-20 10:28:00,
2013-04-20 06:38:00,47.9,39.2,29.91,NW,315,2.2,4.3,72,0.00,,,0.00,WUHU216HW,2013-04-20 10:38:00,
2013-04-20 06:48:00,47.7,38.7,29.91,NW,315,2.7,4.0,71,0.00,,,0.00,WUHU216HW,2013-04-20 10:48:00,
2013-04-20 06:58:00,47.5,37.9,29.92,WSW,248,1.8,3.4,69,0.00,,,0.00,WUHU216HW,2013-04-20 10:58:00,
2013-04-20 07:08:00,47.3,37.3,29.92,West,270,1.6,2.9,68,0.00,,,0.00,WUHU216HW,2013-04-20 11:08:00,
2013-04-20 07:18:00,47.5,37.4,29.93,NW,315,3.8,4.0,68,0.00,,,0.00,WUHU216HW,2013-04-20 11:18:00,
2013-04-20 07:28:00,47.3,36.2,29.93,West,270,1.1,4.0,65,0.00,,,0.00,WUHU216HW,2013-04-20 11:28:00,
2013-04-20 07:38:00,47.3,35.4,29.94,NNW,338,4.0,4.3,63,0.00,,,0.00,WUHU216HW,2013-04-20 11:38:00,
2013-04-20 07:48:00,47.3,35.4,29.94,WSW,248,2.7,7.6,63,0.00,,,0.00,WUHU216HW,2013-04-20 11:48:00,
2013-04-20 07:58:00,47.5,34.7,29.94,NW,315,3.4,4.7,61,0.00,,,0.00,WUHU216HW,2013-04-20 11:58:00,
2013-04-20 08:08:00,47.9,35.1,29.95,West,270,2.2,6.0,61,0.00,,,0.00,WUHU216HW,2013-04-20 12:08:00,
2013-04-20 08:18:00,48.1,34.5,29.95,NNW,338,5.4,5.4,59,0.00,,,0.00,WUHU216HW,2013-04-20 12:18:00,
2013-04-20 08:28:00,47.9,34.7,29.95,WNW,293,4.0,4.9,60,0.00,,,0.00,WUHU216HW,2013-04-20 12:28:00,
2013-04-20 08:38:00,47.7,33.7,29.95,NW,315,4.0,6.9,58,0.00,,,0.00,WUHU216HW,2013-04-20 12:38:00,
2013-04-20 08:48:00,47.9,33.4,29.95,WSW,248,5.4,7.2,57,0.00,,,0.00,WUHU216HW,2013-04-20 12:48:00,
2013-04-20 08:58:00,47.9,33.4,29.95,WSW,248,3.4,4.0,57,0.00,,,0.00,WUHU216HW,2013-04-20 12:58:00,
2013-04-20 09:08:00,47.9,33.4,29.96,West,270,1.1,9.2,57,0.00,,,0.00,WUHU216HW,2013-04-20 13:08:00,
2013-04-20 09:18:00,48.1,32.6,29.96,SW,225,1.8,5.8,55,0.00,,,0.00,WUHU216HW,2013-04-20 13:18:00,
2013-04-20 09:28:00,48.2,33.2,29.96,WNW,293,1.8,4.7,56,0.00,,,0.00,WUHU216HW,2013-04-20 13:28:00,
2013-04-20 09:49:00,48.6,33.6,29.98,West,270,1.8,5.8,56,0.00,,,0.00,WUHU216HW,2013-04-20 13:49:00,
2013-04-20 09:59:00,48.4,33.0,29.99,West,270,4.7,4.7,55,0.00,,,0.00,WUHU216HW,2013-04-20 13:59:00,
2013-04-20 10:09:00,48.6,31.7,30.00,NNW,338,4.7,4.7,52,0.00,,,0.00,WUHU216HW,2013-04-20 14:09:00,
2013-04-20 10:19:00,48.2,31.3,30.01,NW,315,4.7,5.1,52,0.00,,,0.00,WUHU216HW,2013-04-20 14:19:00,
2013-04-20 10:29:00,48.4,32.5,30.01,NW,315,3.4,4.0,54,0.00,,,0.00,WUHU216HW,2013-04-20 14:29:00,
2013-04-20 10:39:00,47.9,30.6,30.02,NNW,338,6.3,7.2,51,0.00,,,0.00,WUHU216HW,2013-04-20 14:39:00,
2013-04-20 10:49:00,48.2,31.9,30.03,NW,315,3.1,5.8,53,0.00,,,0.00,WUHU216HW,2013-04-20 14:49:00,
2013-04-20 10:59:00,48.6,31.7,30.03,WNW,293,3.4,4.0,52,0.00,,,0.00,WUHU216HW,2013-04-20 14:59:00,
2013-04-20 11:09:00,48.6,31.7,30.03,NW,315,2.2,4.9,52,0.00,,,0.00,WUHU216HW,2013-04-20 15:09:00,
2013-04-20 11:19:00,49.3,32.9,30.04,NNW,338,2.7,4.0,53,0.00,,,0.00,WUHU216HW,2013-04-20 15:19:00,
2013-04-20 11:29:00,49.5,32.6,30.04,West,270,2.5,6.3,52,0.00,,,0.00,WUHU216HW,2013-04-20 15:29:00,
2013-04-20 11:39:00,50.0,34.5,30.04,NW,315,2.7,4.5,55,0.00,,,0.00,WUHU216HW,2013-04-20 15:39:00,
2013-04-20 11:49:00,50.8,33.8,30.03,SSW,203,3.4,5.4,52,0.00,,,0.00,WUHU216HW,2013-04-20 15:49:00,
2013-04-20 11:59:00,51.8,35.6,30.04,WNW,293,1.3,2.9,54,0.00,,,0.00,WUHU216HW,2013-04-20 15:59:00,
2013-04-20 12:09:00,52.4,36.2,30.03,NNW,338,2.0,3.6,54,0.00,,,0.00,WUHU216HW,2013-04-20 16:09:00,
2013-04-20 12:19:00,52.7,34.7,30.03,WSW,248,3.8,4.7,50,0.00,,,0.00,WUHU216HW,2013-04-20 16:19:00,
2013-04-20 12:29:00,52.9,34.3,30.03,North,0,2.2,7.6,49,0.00,,,0.00,WUHU216HW,2013-04-20 16:29:00,
2013-04-20 12:39:00,54.5,34.0,30.03,NW,315,6.0,8.1,46,0.00,,,0.00,WUHU216HW,2013-04-20 16:39:00,
2013-04-20 12:49:00,53.5,33.0,30.02,WSW,248,2.9,6.5,46,0.00,,,0.00,WUHU216HW,2013-04-20 16:49:00,
2013-04-20 12:59:00,54.5,35.2,30.02,West,270,4.0,5.1,48,0.00,,,0.00,WUHU216HW,2013-04-20 16:59:00,
2013-04-20 13:09:00,54.9,34.9,30.02,NW,315,3.1,4.9,47,0.00,,,0.00,WUHU216HW,2013-04-20 17:09:00,
2013-04-20 13:19:00,54.2,33.8,30.02,WNW,293,3.8,6.9,46,0.00,,,0.00,WUHU216HW,2013-04-20 17:19:00,
2013-04-20 13:29:00,54.9,34.4,30.02,WSW,248,5.1,5.8,46,0.00,,,0.00,WUHU216HW,2013-04-20 17:29:00,
2013-04-20 13:39:00,54.2,32.6,30.03,SSE,158,4.5,6.3,44,0.00,,,0.00,WUHU216HW,2013-04-20 17:39:00,
2013-04-20 13:49:00,53.3,33.0,30.03,North,0,8.3,8.3,46,0.00,,,0.00,WUHU216HW,2013-04-20 17:49:00,
2013-04-20 13:59:00,54.7,34.2,30.02,NNW,338,1.8,6.9,46,0.00,,,0.00,WUHU216HW,2013-04-20 17:59:00,
2013-04-20 14:09:00,55.4,33.2,30.03,WNW,293,2.5,4.3,43,0.00,,,0.00,WUHU216HW,2013-04-20 18:09:00,
2013-04-20 14:19:00,54.9,32.1,30.03,WNW,293,3.4,6.9,42,0.00,,,0.00,WUHU216HW,2013-04-20 18:19:00,
2013-04-20 14:29:00,55.1,32.9,30.03,NNW,338,1.6,8.5,43,0.00,,,0.00,WUHU216HW,2013-04-20 18:29:00,
2013-04-20 14:39:00,55.1,31.8,30.03,WSW,248,5.6,6.0,41,0.00,,,0.00,WUHU216HW,2013-04-20 18:39:00,
2013-04-20 14:49:00,55.6,34.5,30.03,NW,315,4.0,6.3,45,0.00,,,0.00,WUHU216HW,2013-04-20 18:49:00,
2013-04-20 14:59:00,55.8,31.9,30.03,NNW,338,6.3,7.6,40,0.00,,,0.00,WUHU216HW,2013-04-20 18:59:00,
2013-04-20 15:09:00,55.8,32.4,30.03,West,270,3.4,4.0,41,0.00,,,0.00,WUHU216HW,2013-04-20 19:09:00,
2013-04-20 15:19:00,55.8,31.9,30.03,NW,315,6.3,6.3,40,0.00,,,0.00,WUHU216HW,2013-04-20 19:19:00,
2013-04-20 15:29:00,56.3,32.9,30.04,WSW,248,2.0,8.3,41,0.00,,,0.00,WUHU216HW,2013-04-20 19:29:00,
2013-04-20 15:39:00,56.0,32.0,30.04,North,0,3.8,8.1,40,0.00,,,0.00,WUHU216HW,2013-04-20 19:39:00,
2013-04-20 15:49:00,56.5,34.2,30.04,SW,225,1.8,4.9,43,0.00,,,0.00,WUHU216HW,2013-04-20 19:49:00,
2013-04-20 15:59:00,56.5,31.8,30.05,West,270,1.6,5.1,39,0.00,,,0.00,WUHU216HW,2013-04-20 19:59:00,
2013-04-20 16:09:00,56.7,32.7,30.05,WNW,293,4.0,5.4,40,0.00,,,0.00,WUHU216HW,2013-04-20 20:09:00,
2013-04-20 16:19:00,56.3,31.6,30.06,West,270,1.8,7.8,39,0.00,,,0.00,WUHU216HW,2013-04-20 20:19:00,
2013-04-20 16:29:00,56.5,31.8,30.06,NW,315,3.1,6.0,39,0.00,,,0.00,WUHU216HW,2013-04-20 20:29:00,
2013-04-20 16:39:00,56.3,32.3,30.06,NNE,23,4.0,4.0,40,0.00,,,0.00,WUHU216HW,2013-04-20 20:39:00,
2013-04-20 16:49:00,57.4,31.1,30.07,SSW,203,3.8,4.9,37,0.00,,,0.00,WUHU216HW,2013-04-20 20:49:00,
2013-04-20 16:59:00,57.1,31.6,30.08,NNW,338,2.9,4.0,38,0.00,,,0.00,WUHU216HW,2013-04-20 20:59:00,
2013-04-20 17:09:00,56.3,29.5,30.08,NNW,338,2.7,6.5,36,0.00,,,0.00,WUHU216HW,2013-04-20 21:09:00,
2013-04-20 17:19:00,56.7,31.2,30.09,NNW,338,0.4,6.0,38,0.00,,,0.00,WUHU216HW,2013-04-20 21:19:00,
2013-04-20 17:29:00,56.3,29.5,30.09,WNW,293,2.0,4.3,36,0.00,,,0.00,WUHU216HW,2013-04-20 21:29:00,
2013-04-20 17:39:00,56.2,30.8,30.10,West,270,0.4,6.3,38,0.00,,,0.00,WUHU216HW,2013-04-20 21:39:00,
2013-04-20 17:49:00,56.5,31.1,30.10,WNW,293,1.8,2.9,38,0.00,,,0.00,WUHU216HW,2013-04-20 21:49:00,
2013-04-20 18:08:00,56.0,30.6,30.11,West,270,1.1,1.6,38,0.00,,,0.00,WUHU216HW,2013-04-20 22:08:00,
2013-04-20 19:10:00,54.0,29.5,30.14,WNW,293,1.1,5.6,39,0.00,,,0.00,WUHU216HW,2013-04-20 23:10:00,
2013-04-20 19:20:00,53.8,29.3,30.15,West,270,0.4,2.5,39,0.00,,,0.00,WUHU216HW,2013-04-20 23:20:00,
2013-04-20 19:45:00,51.5,27.9,30.17,West,270,1.6,2.0,40,0.00,,,0.00,WUHU216HW,2013-04-20 23:45:00,
2013-04-20 19:55:00,51.1,28.2,30.18,West,270,0.2,2.9,41,0.00,,,0.00,WUHU216HW,2013-04-20 23:55:00,
2013-04-20 20:05:00,50.8,27.8,30.19,NW,315,2.5,2.5,41,0.00,,,0.00,WUHU216HW,2013-04-21 00:05:00,
2013-04-20 20:15:00,50.8,27.8,30.20,WNW,293,1.3,3.8,41,0.00,,,0.00,WUHU216HW,2013-04-21 00:15:00,
2013-04-20 20:25:00,50.4,27.6,30.21,WNW,293,2.0,3.4,41,0.00,,,0.00,WUHU216HW,2013-04-21 00:25:00,
2013-04-20 20:35:00,50.4,28.1,30.22,WSW,248,0.4,3.1,42,0.00,,,0.00,WUHU216HW,2013-04-21 00:35:00,
2013-04-20 20:45:00,50.0,27.7,30.22,NW,315,1.1,2.0,42,0.00,,,0.00,WUHU216HW,2013-04-21 00:45:00,
2013-04-20 20:55:00,49.7,28.0,30.23,WNW,293,1.6,2.2,43,0.00,,,0.00,WUHU216HW,2013-04-21 00:55:00,
2013-04-20 21:05:00,49.5,27.3,30.24,WSW,248,2.2,3.4,42,0.00,,,0.00,WUHU216HW,2013-04-21 01:05:00,
2013-04-20 21:15:00,49.1,27.5,30.25,WNW,293,0.7,2.5,43,0.00,,,0.00,WUHU216HW,2013-04-21 01:15:00,
2013-04-20 21:25:00,48.8,27.2,30.26,West,270,1.3,4.0,43,0.00,,,0.00,WUHU216HW,2013-04-21 01:25:00,
2013-04-20 21:35:00,48.6,27.6,30.27,West,270,1.1,2.5,44,0.00,,,0.00,WUHU216HW,2013-04-21 01:35:00,
2013-04-20 21:45:00,48.6,27.6,30.28,North,0,2.5,4.7,44,0.00,,,0.00,WUHU216HW,2013-04-21 01:45:00,
2013-04-20 21:55:00,48.4,27.9,30.29,WNW,293,1.6,4.9,45,0.00,,,0.00,WUHU216HW,2013-04-21 01:55:00,
2013-04-20 22:05:00,48.2,27.7,30.29,North,0,3.1,4.9,45,0.00,,,0.00,WUHU216HW,2013-04-21 02:05:00,
2013-04-20 22:15:00,47.9,26.8,30.30,NW,315,1.6,4.0,44,0.00,,,0.00,WUHU216HW,2013-04-21 02:15:00,
2013-04-20 22:25:00,47.5,26.6,30.30,West,270,0.9,4.3,44,0.00,,,0.00,WUHU216HW,2013-04-21 02:25:00,
2013-04-20 22:35:00,47.2,26.7,30.30,NNW,338,0.9,2.9,45,0.00,,,0.00,WUHU216HW,2013-04-21 02:35:00,
2013-04-20 22:45:00,46.6,26.8,30.31,NNW,338,1.1,3.4,46,0.00,,,0.00,WUHU216HW,2013-04-21 02:45:00,
2013-04-20 22:55:00,46.3,26.5,30.32,North,0,3.1,3.6,46,0.00,,,0.00,WUHU216HW,2013-04-21 02:55:00,
2013-04-20 23:05:00,45.9,26.2,30.32,NW,315,0.4,2.5,46,0.00,,,0.00,WUHU216HW,2013-04-21 03:05:00,
2013-04-20 23:15:00,45.5,26.4,30.33,WSW,248,4.0,6.3,47,0.00,,,0.00,WUHU216HW,2013-04-21 03:15:00,
2013-04-20 23:25:00,45.2,26.6,30.33,North,0,2.0,3.4,48,0.00,,,0.00,WUHU216HW,2013-04-21 03:25:00,
2013-04-20 23:35:00,44.6,24.5,30.34,North,0,5.8,8.5,45,0.00,,,0.00,WUHU216HW,2013-04-21 03:35:00,
2013-04-20 23:45:00,44.3,24.1,30.34,North,0,2.5,4.7,45,0.00,,,0.00,WUHU216HW,2013-04-21 03:45:00,
2013-04-20 23:55:00,43.7,24.2,30.35,North,0,2.0,7.4,46,0.00,,,0.00,WUHU216HW,2013-04-21 03:55:00,